sensor_id;sensor_type;location;lat;lon;timestamp;temperature;humidity
14049;DHT22;7099;53.922;10.728;2023-02-28T00:00:01;3.60;64.30
14049;DHT22;7099;53.922;10.728;2023-02-28T00:04:14;3.70;64.40
14049;DHT22;7099;53.922;10.728;2023-02-28T00:08:20;3.60;64.60
14049;DHT22;7099;53.922;10.728;2023-02-28T00:12:26;3.60;64.60
14049;DHT22;7099;53.922;10.728;2023-02-28T00:16:32;3.60;64.50
14049;DHT22;7099;53.922;10.728;2023-02-28T00:20:38;3.50;64.40
14049;DHT22;7099;53.922;10.728;2023-02-28T00:24:43;3.50;64.30
14049;DHT22;7099;53.922;10.728;2023-02-28T00:28:51;3.50;64.30
14049;DHT22;7099;53.922;10.728;2023-02-28T00:32:58;3.50;64.30
14049;DHT22;7099;53.922;10.728;2023-02-28T00:37:09;3.50;64.30
14049;DHT22;7099;53.922;10.728;2023-02-28T00:41:17;3.50;64.40
14049;DHT22;7099;53.922;10.728;2023-02-28T00:45:22;3.40;64.30
14049;DHT22;7099;53.922;10.728;2023-02-28T00:49:28;3.40;64.20
14049;DHT22;7099;53.922;10.728;2023-02-28T00:53:33;3.50;64.40
14049;DHT22;7099;53.922;10.728;2023-02-28T00:57:39;3.50;64.50
14049;DHT22;7099;53.922;10.728;2023-02-28T01:01:45;3.50;64.80
14049;DHT22;7099;53.922;10.728;2023-02-28T01:05:51;3.40;65.00
14049;DHT22;7099;53.922;10.728;2023-02-28T01:09:58;3.30;65.00
14049;DHT22;7099;53.922;10.728;2023-02-28T01:14:03;3.30;65.10
14049;DHT22;7099;53.922;10.728;2023-02-28T01:18:09;3.40;65.00
14049;DHT22;7099;53.922;10.728;2023-02-28T01:22:14;3.40;64.90
14049;DHT22;7099;53.922;10.728;2023-02-28T01:26:21;3.40;64.90
14049;DHT22;7099;53.922;10.728;2023-02-28T01:30:27;3.30;64.90
14049;DHT22;7099;53.922;10.728;2023-02-28T01:34:33;3.30;64.90
14049;DHT22;7099;53.922;10.728;2023-02-28T01:38:39;3.30;64.90
14049;DHT22;7099;53.922;10.728;2023-02-28T01:42:44;3.30;65.10
14049;DHT22;7099;53.922;10.728;2023-02-28T01:46:50;3.30;65.00
14049;DHT22;7099;53.922;10.728;2023-02-28T01:51:00;3.30;65.10
14049;DHT22;7099;53.922;10.728;2023-02-28T01:55:10;3.30;65.20
14049;DHT22;7099;53.922;10.728;2023-02-28T01:59:23;3.20;65.30
14049;DHT22;7099;53.922;10.728;2023-02-28T02:03:36;3.20;65.50
14049;DHT22;7099;53.922;10.728;2023-02-28T02:07:45;3.10;65.60
14049;DHT22;7099;53.922;10.728;2023-02-28T02:11:55;3.10;65.70
14049;DHT22;7099;53.922;10.728;2023-02-28T02:39:06;3.00;65.90
14049;DHT22;7099;53.922;10.728;2023-02-28T02:43:18;3.00;65.90
14049;DHT22;7099;53.922;10.728;2023-02-28T02:47:30;3.00;66.00
14049;DHT22;7099;53.922;10.728;2023-02-28T02:51:38;2.90;66.10
14049;DHT22;7099;53.922;10.728;2023-02-28T02:55:46;2.90;66.40
14049;DHT22;7099;53.922;10.728;2023-02-28T02:59:59;2.90;66.20
14049;DHT22;7099;53.922;10.728;2023-02-28T03:04:16;2.90;66.10
14049;DHT22;7099;53.922;10.728;2023-02-28T03:08:24;2.90;66.60
14049;DHT22;7099;53.922;10.728;2023-02-28T03:12:41;2.80;65.90
14049;DHT22;7099;53.922;10.728;2023-02-28T03:17:16;2.70;67.00
14049;DHT22;7099;53.922;10.728;2023-02-28T03:26:01;2.60;66.00
14049;DHT22;7099;53.922;10.728;2023-02-28T03:38:51;2.40;66.40
14049;DHT22;7099;53.922;10.728;2023-02-28T03:43:04;2.40;66.40
14049;DHT22;7099;53.922;10.728;2023-02-28T03:47:27;2.30;66.30
14049;DHT22;7099;53.922;10.728;2023-02-28T03:51:37;2.20;66.20
14049;DHT22;7099;53.922;10.728;2023-02-28T03:55:58;2.20;65.80
14049;DHT22;7099;53.922;10.728;2023-02-28T04:00:12;2.10;65.70
14049;DHT22;7099;53.922;10.728;2023-02-28T04:04:21;1.90;65.30
14049;DHT22;7099;53.922;10.728;2023-02-28T04:08:27;1.80;65.50
14049;DHT22;7099;53.922;10.728;2023-02-28T04:12:33;1.70;65.60
14049;DHT22;7099;53.922;10.728;2023-02-28T04:16:41;1.70;65.80
14049;DHT22;7099;53.922;10.728;2023-02-28T04:20:47;1.60;65.60
14049;DHT22;7099;53.922;10.728;2023-02-28T04:24:52;1.50;65.60
14049;DHT22;7099;53.922;10.728;2023-02-28T04:29:00;1.40;65.40
14049;DHT22;7099;53.922;10.728;2023-02-28T04:33:07;1.40;65.60
14049;DHT22;7099;53.922;10.728;2023-02-28T04:37:12;1.30;65.30
14049;DHT22;7099;53.922;10.728;2023-02-28T04:41:18;1.20;65.40
14049;DHT22;7099;53.922;10.728;2023-02-28T04:45:24;1.10;65.90
14049;DHT22;7099;53.922;10.728;2023-02-28T04:49:30;1.10;66.10
14049;DHT22;7099;53.922;10.728;2023-02-28T04:53:37;1.10;65.70
14049;DHT22;7099;53.922;10.728;2023-02-28T04:57:44;1.00;65.80
14049;DHT22;7099;53.922;10.728;2023-02-28T05:01:49;0.90;66.10
14049;DHT22;7099;53.922;10.728;2023-02-28T05:05:55;0.90;66.10
14049;DHT22;7099;53.922;10.728;2023-02-28T05:10:00;0.80;65.80
14049;DHT22;7099;53.922;10.728;2023-02-28T05:14:10;0.70;65.70
14049;DHT22;7099;53.922;10.728;2023-02-28T05:18:17;0.70;66.40
14049;DHT22;7099;53.922;10.728;2023-02-28T05:22:22;0.60;66.70
14049;DHT22;7099;53.922;10.728;2023-02-28T05:26:28;0.60;66.80
14049;DHT22;7099;53.922;10.728;2023-02-28T05:30:35;0.60;66.40
14049;DHT22;7099;53.922;10.728;2023-02-28T05:34:41;0.50;66.70
14049;DHT22;7099;53.922;10.728;2023-02-28T05:38:48;0.40;66.40
14049;DHT22;7099;53.922;10.728;2023-02-28T05:42:54;0.40;66.10
14049;DHT22;7099;53.922;10.728;2023-02-28T05:46:59;0.30;66.00
14049;DHT22;7099;53.922;10.728;2023-02-28T05:51:06;0.20;66.20
14049;DHT22;7099;53.922;10.728;2023-02-28T05:55:12;0.10;66.00
14049;DHT22;7099;53.922;10.728;2023-02-28T05:59:17;0.10;66.00
14049;DHT22;7099;53.922;10.728;2023-02-28T06:03:23;0.00;66.00
14049;DHT22;7099;53.922;10.728;2023-02-28T06:07:28;0.00;66.00
14049;DHT22;7099;53.922;10.728;2023-02-28T06:11:34;-0.10;66.00
14049;DHT22;7099;53.922;10.728;2023-02-28T06:15:39;-0.20;66.20
14049;DHT22;7099;53.922;10.728;2023-02-28T06:19:45;-0.20;66.90
14049;DHT22;7099;53.922;10.728;2023-02-28T06:23:51;-0.20;66.80
14049;DHT22;7099;53.922;10.728;2023-02-28T06:27:57;-0.20;67.10
14049;DHT22;7099;53.922;10.728;2023-02-28T06:32:02;-0.30;67.00
14049;DHT22;7099;53.922;10.728;2023-02-28T06:36:10;-0.30;67.00
14049;DHT22;7099;53.922;10.728;2023-02-28T06:40:17;-0.30;66.80
14049;DHT22;7099;53.922;10.728;2023-02-28T06:44:23;-0.40;66.90
14049;DHT22;7099;53.922;10.728;2023-02-28T06:48:29;-0.40;67.10
14049;DHT22;7099;53.922;10.728;2023-02-28T06:52:35;-0.40;66.90
14049;DHT22;7099;53.922;10.728;2023-02-28T06:56:43;-0.40;67.00
14049;DHT22;7099;53.922;10.728;2023-02-28T07:00:52;-0.40;67.20
14049;DHT22;7099;53.922;10.728;2023-02-28T07:04:57;-0.40;67.30
14049;DHT22;7099;53.922;10.728;2023-02-28T07:09:03;-0.40;67.40
14049;DHT22;7099;53.922;10.728;2023-02-28T07:13:09;-0.40;67.70
14049;DHT22;7099;53.922;10.728;2023-02-28T07:17:15;-0.40;68.10
14049;DHT22;7099;53.922;10.728;2023-02-28T07:21:21;-0.30;68.20
14049;DHT22;7099;53.922;10.728;2023-02-28T07:25:28;-0.30;68.40
14049;DHT22;7099;53.922;10.728;2023-02-28T07:29:34;-0.20;68.90
14049;DHT22;7099;53.922;10.728;2023-02-28T07:33:40;-0.20;68.70
14049;DHT22;7099;53.922;10.728;2023-02-28T07:37:46;-0.10;68.90
14049;DHT22;7099;53.922;10.728;2023-02-28T07:41:52;0.00;68.80
14049;DHT22;7099;53.922;10.728;2023-02-28T07:46:06;0.10;68.80
14049;DHT22;7099;53.922;10.728;2023-02-28T07:50:14;0.20;69.10
14049;DHT22;7099;53.922;10.728;2023-02-28T07:54:21;0.30;69.00
14049;DHT22;7099;53.922;10.728;2023-02-28T07:58:28;0.50;69.00
14049;DHT22;7099;53.922;10.728;2023-02-28T08:02:34;0.60;69.30
14049;DHT22;7099;53.922;10.728;2023-02-28T08:06:40;0.70;69.20
14049;DHT22;7099;53.922;10.728;2023-02-28T08:10:45;0.90;69.20
14049;DHT22;7099;53.922;10.728;2023-02-28T08:14:51;1.00;69.60
14049;DHT22;7099;53.922;10.728;2023-02-28T08:18:56;1.10;69.50
14049;DHT22;7099;53.922;10.728;2023-02-28T08:23:02;1.30;69.50
14049;DHT22;7099;53.922;10.728;2023-02-28T08:27:08;1.40;69.70
14049;DHT22;7099;53.922;10.728;2023-02-28T08:31:15;1.60;69.50
14049;DHT22;7099;53.922;10.728;2023-02-28T08:35:22;1.80;69.60
14049;DHT22;7099;53.922;10.728;2023-02-28T08:39:27;2.00;69.50
14049;DHT22;7099;53.922;10.728;2023-02-28T08:43:34;2.10;69.30
14049;DHT22;7099;53.922;10.728;2023-02-28T08:47:40;2.30;68.90
14049;DHT22;7099;53.922;10.728;2023-02-28T08:51:46;2.50;68.70
14049;DHT22;7099;53.922;10.728;2023-02-28T08:56:00;2.60;68.40
14049;DHT22;7099;53.922;10.728;2023-02-28T09:00:10;2.80;68.30
14049;DHT22;7099;53.922;10.728;2023-02-28T09:04:18;3.00;67.80
14049;DHT22;7099;53.922;10.728;2023-02-28T09:08:27;3.10;67.20
14049;DHT22;7099;53.922;10.728;2023-02-28T09:12:34;3.30;67.40
14049;DHT22;7099;53.922;10.728;2023-02-28T09:16:40;3.50;66.70
14049;DHT22;7099;53.922;10.728;2023-02-28T09:20:46;3.70;66.60
14049;DHT22;7099;53.922;10.728;2023-02-28T09:24:51;3.90;65.90
14049;DHT22;7099;53.922;10.728;2023-02-28T09:28:57;4.00;65.10
14049;DHT22;7099;53.922;10.728;2023-02-28T09:33:04;4.20;64.50
14049;DHT22;7099;53.922;10.728;2023-02-28T09:37:09;4.40;63.80
14049;DHT22;7099;53.922;10.728;2023-02-28T09:41:42;4.50;63.00
14049;DHT22;7099;53.922;10.728;2023-02-28T09:46:00;4.70;61.70
14049;DHT22;7099;53.922;10.728;2023-02-28T09:50:28;4.80;62.60
14049;DHT22;7099;53.922;10.728;2023-02-28T09:54:38;5.00;61.20
14049;DHT22;7099;53.922;10.728;2023-02-28T09:58:51;5.20;62.00
14049;DHT22;7099;53.922;10.728;2023-02-28T10:08:05;5.50;60.10
14049;DHT22;7099;53.922;10.728;2023-02-28T10:12:22;5.60;59.70
14049;DHT22;7099;53.922;10.728;2023-02-28T10:17:14;5.80;60.70
14049;DHT22;7099;53.922;10.728;2023-02-28T10:21:34;6.00;58.90
14049;DHT22;7099;53.922;10.728;2023-02-28T10:26:08;6.10;59.00
14049;DHT22;7099;53.922;10.728;2023-02-28T10:30:21;6.30;58.80
14049;DHT22;7099;53.922;10.728;2023-02-28T10:34:26;6.50;58.60
14049;DHT22;7099;53.922;10.728;2023-02-28T10:38:35;6.60;57.70
14049;DHT22;7099;53.922;10.728;2023-02-28T10:42:42;6.70;57.40
14049;DHT22;7099;53.922;10.728;2023-02-28T10:46:48;6.80;56.80
14049;DHT22;7099;53.922;10.728;2023-02-28T10:50:55;6.90;54.70
14049;DHT22;7099;53.922;10.728;2023-02-28T10:55:24;7.00;56.00
14049;DHT22;7099;53.922;10.728;2023-02-28T10:59:31;7.10;54.70
14049;DHT22;7099;53.922;10.728;2023-02-28T11:03:36;7.30;56.30
14049;DHT22;7099;53.922;10.728;2023-02-28T11:07:41;7.50;55.20
14049;DHT22;7099;53.922;10.728;2023-02-28T11:12:00;7.60;55.70
14049;DHT22;7099;53.922;10.728;2023-02-28T11:16:11;7.80;54.90
14049;DHT22;7099;53.922;10.728;2023-02-28T11:20:22;7.90;54.60
14049;DHT22;7099;53.922;10.728;2023-02-28T11:24:33;8.00;53.90
14049;DHT22;7099;53.922;10.728;2023-02-28T11:28:42;8.10;54.60
14049;DHT22;7099;53.922;10.728;2023-02-28T11:32:48;8.20;53.50
14049;DHT22;7099;53.922;10.728;2023-02-28T11:36:56;8.20;53.30
14049;DHT22;7099;53.922;10.728;2023-02-28T11:55:36;8.50;51.60
14049;DHT22;7099;53.922;10.728;2023-02-28T12:04:47;8.50;50.10
14049;DHT22;7099;53.922;10.728;2023-02-28T12:23:24;8.70;51.20
14049;DHT22;7099;53.922;10.728;2023-02-28T12:27:38;8.60;49.80
14049;DHT22;7099;53.922;10.728;2023-02-28T12:32:06;8.70;52.00
14049;DHT22;7099;53.922;10.728;2023-02-28T12:36:15;8.70;50.60
14049;DHT22;7099;53.922;10.728;2023-02-28T12:40:28;8.70;51.20
14049;DHT22;7099;53.922;10.728;2023-02-28T12:44:59;8.80;50.90
14049;DHT22;7099;53.922;10.728;2023-02-28T12:49:32;8.80;50.00
14049;DHT22;7099;53.922;10.728;2023-02-28T12:58:39;8.80;49.60
14049;DHT22;7099;53.922;10.728;2023-02-28T13:11:58;9.00;49.60
14049;DHT22;7099;53.922;10.728;2023-02-28T13:16:10;9.10;49.60
14049;DHT22;7099;53.922;10.728;2023-02-28T13:20:36;9.10;48.70
14049;DHT22;7099;53.922;10.728;2023-02-28T13:24:50;9.20;49.60
14049;DHT22;7099;53.922;10.728;2023-02-28T13:34:13;9.50;47.60
14049;DHT22;7099;53.922;10.728;2023-02-28T13:38:22;9.60;48.20
14049;DHT22;7099;53.922;10.728;2023-02-28T13:42:49;9.70;46.70
14049;DHT22;7099;53.922;10.728;2023-02-28T13:51:28;9.70;47.40
14049;DHT22;7099;53.922;10.728;2023-02-28T14:05:13;9.80;45.90
14049;DHT22;7099;53.922;10.728;2023-02-28T14:13:46;9.90;45.80
14049;DHT22;7099;53.922;10.728;2023-02-28T14:17:53;10.00;46.40
14049;DHT22;7099;53.922;10.728;2023-02-28T14:31:00;10.40;47.10
14049;DHT22;7099;53.922;10.728;2023-02-28T14:35:19;10.50;46.80
14049;DHT22;7099;53.922;10.728;2023-02-28T14:39:31;10.40;45.80
14049;DHT22;7099;53.922;10.728;2023-02-28T14:43:51;10.50;46.40
14049;DHT22;7099;53.922;10.728;2023-02-28T14:48:02;10.70;45.90
14049;DHT22;7099;53.922;10.728;2023-02-28T14:56:23;10.80;46.00
14049;DHT22;7099;53.922;10.728;2023-02-28T15:00:39;11.00;45.50
14049;DHT22;7099;53.922;10.728;2023-02-28T15:09:18;11.10;43.20
14049;DHT22;7099;53.922;10.728;2023-02-28T15:13:45;11.10;45.30
14049;DHT22;7099;53.922;10.728;2023-02-28T15:17:54;11.10;45.40
14049;DHT22;7099;53.922;10.728;2023-02-28T15:22:12;11.10;44.80
14049;DHT22;7099;53.922;10.728;2023-02-28T15:26:25;11.20;44.80
14049;DHT22;7099;53.922;10.728;2023-02-28T15:30:35;11.20;45.40
14049;DHT22;7099;53.922;10.728;2023-02-28T15:34:43;11.30;45.60
14049;DHT22;7099;53.922;10.728;2023-02-28T15:38:52;11.30;44.90
14049;DHT22;7099;53.922;10.728;2023-02-28T15:43:05;11.30;44.50
14049;DHT22;7099;53.922;10.728;2023-02-28T15:47:22;11.30;44.50
14049;DHT22;7099;53.922;10.728;2023-02-28T15:51:33;11.30;44.40
14049;DHT22;7099;53.922;10.728;2023-02-28T15:55:42;11.20;44.40
14049;DHT22;7099;53.922;10.728;2023-02-28T16:00:00;11.20;43.90
14049;DHT22;7099;53.922;10.728;2023-02-28T16:04:18;11.10;43.70
14049;DHT22;7099;53.922;10.728;2023-02-28T16:08:24;11.10;43.30
14049;DHT22;7099;53.922;10.728;2023-02-28T16:12:32;11.00;44.50
14049;DHT22;7099;53.922;10.728;2023-02-28T16:16:43;10.90;44.80
14049;DHT22;7099;53.922;10.728;2023-02-28T16:20:50;10.80;44.60
14049;DHT22;7099;53.922;10.728;2023-02-28T16:24:55;10.70;45.40
14049;DHT22;7099;53.922;10.728;2023-02-28T16:29:01;10.50;45.10
14049;DHT22;7099;53.922;10.728;2023-02-28T16:33:07;10.30;45.70
14049;DHT22;7099;53.922;10.728;2023-02-28T16:37:15;10.10;46.10
14049;DHT22;7099;53.922;10.728;2023-02-28T16:41:25;10.00;46.20
14049;DHT22;7099;53.922;10.728;2023-02-28T16:45:32;9.90;46.50
14049;DHT22;7099;53.922;10.728;2023-02-28T16:49:39;9.80;47.10
14049;DHT22;7099;53.922;10.728;2023-02-28T16:53:47;9.60;46.40
14049;DHT22;7099;53.922;10.728;2023-02-28T16:58:02;9.50;47.00
14049;DHT22;7099;53.922;10.728;2023-02-28T17:02:13;9.20;46.90
14049;DHT22;7099;53.922;10.728;2023-02-28T17:06:25;9.10;47.40
14049;DHT22;7099;53.922;10.728;2023-02-28T17:10:33;8.80;47.70
14049;DHT22;7099;53.922;10.728;2023-02-28T17:14:39;8.70;48.00
14049;DHT22;7099;53.922;10.728;2023-02-28T17:18:44;8.50;47.90
14049;DHT22;7099;53.922;10.728;2023-02-28T17:22:50;8.30;47.90
14049;DHT22;7099;53.922;10.728;2023-02-28T17:26:56;8.10;48.40
14049;DHT22;7099;53.922;10.728;2023-02-28T17:31:01;8.00;48.70
14049;DHT22;7099;53.922;10.728;2023-02-28T17:35:07;7.80;48.70
14049;DHT22;7099;53.922;10.728;2023-02-28T17:39:14;7.60;48.70
14049;DHT22;7099;53.922;10.728;2023-02-28T17:43:20;7.40;48.70
14049;DHT22;7099;53.922;10.728;2023-02-28T17:47:26;7.20;48.80
14049;DHT22;7099;53.922;10.728;2023-02-28T17:51:31;7.10;49.30
14049;DHT22;7099;53.922;10.728;2023-02-28T17:55:37;6.80;49.50
14049;DHT22;7099;53.922;10.728;2023-02-28T17:59:43;6.60;49.50
14049;DHT22;7099;53.922;10.728;2023-02-28T18:03:49;6.50;49.80
14049;DHT22;7099;53.922;10.728;2023-02-28T18:07:54;6.40;50.30
14049;DHT22;7099;53.922;10.728;2023-02-28T18:12:00;6.20;50.40
14049;DHT22;7099;53.922;10.728;2023-02-28T18:16:05;6.00;50.50
14049;DHT22;7099;53.922;10.728;2023-02-28T18:20:12;5.80;50.60
14049;DHT22;7099;53.922;10.728;2023-02-28T18:24:19;5.70;51.00
14049;DHT22;7099;53.922;10.728;2023-02-28T18:28:26;5.50;51.10
14049;DHT22;7099;53.922;10.728;2023-02-28T18:32:32;5.30;51.40
14049;DHT22;7099;53.922;10.728;2023-02-28T18:36:38;5.20;51.60
14049;DHT22;7099;53.922;10.728;2023-02-28T18:40:52;5.00;52.10
14049;DHT22;7099;53.922;10.728;2023-02-28T18:44:59;4.80;52.00
14049;DHT22;7099;53.922;10.728;2023-02-28T18:49:05;4.70;52.20
14049;DHT22;7099;53.922;10.728;2023-02-28T18:53:10;4.60;52.50
14049;DHT22;7099;53.922;10.728;2023-02-28T18:57:16;4.50;52.60
14049;DHT22;7099;53.922;10.728;2023-02-28T19:01:24;4.40;52.70
14049;DHT22;7099;53.922;10.728;2023-02-28T19:05:37;4.20;52.70
14049;DHT22;7099;53.922;10.728;2023-02-28T19:09:44;4.10;53.00
14049;DHT22;7099;53.922;10.728;2023-02-28T19:13:49;4.00;53.20
14049;DHT22;7099;53.922;10.728;2023-02-28T19:17:54;3.90;53.40
14049;DHT22;7099;53.922;10.728;2023-02-28T19:22:00;3.80;53.50
14049;DHT22;7099;53.922;10.728;2023-02-28T19:26:07;3.60;53.60
14049;DHT22;7099;53.922;10.728;2023-02-28T19:30:14;3.60;53.90
14049;DHT22;7099;53.922;10.728;2023-02-28T19:34:19;3.40;54.00
14049;DHT22;7099;53.922;10.728;2023-02-28T19:38:25;3.30;54.10
14049;DHT22;7099;53.922;10.728;2023-02-28T19:42:31;3.10;54.70
14049;DHT22;7099;53.922;10.728;2023-02-28T19:46:38;3.10;54.60
14049;DHT22;7099;53.922;10.728;2023-02-28T19:50:44;3.00;54.80
14049;DHT22;7099;53.922;10.728;2023-02-28T19:54:49;2.90;55.80
14049;DHT22;7099;53.922;10.728;2023-02-28T19:58:56;2.80;55.40
14049;DHT22;7099;53.922;10.728;2023-02-28T20:03:02;2.70;55.70
14049;DHT22;7099;53.922;10.728;2023-02-28T20:07:08;2.50;55.90
14049;DHT22;7099;53.922;10.728;2023-02-28T20:11:16;2.50;56.10
14049;DHT22;7099;53.922;10.728;2023-02-28T20:15:21;2.40;56.10
14049;DHT22;7099;53.922;10.728;2023-02-28T20:19:27;2.30;56.20
14049;DHT22;7099;53.922;10.728;2023-02-28T20:23:33;2.30;56.40
14049;DHT22;7099;53.922;10.728;2023-02-28T20:27:39;2.20;56.70
14049;DHT22;7099;53.922;10.728;2023-02-28T20:31:45;2.20;56.70
14049;DHT22;7099;53.922;10.728;2023-02-28T20:35:58;2.10;56.80
14049;DHT22;7099;53.922;10.728;2023-02-28T20:40:05;1.90;57.10
14049;DHT22;7099;53.922;10.728;2023-02-28T20:44:12;1.90;57.10
14049;DHT22;7099;53.922;10.728;2023-02-28T20:48:17;1.80;57.20
14049;DHT22;7099;53.922;10.728;2023-02-28T20:52:23;1.80;57.30
14049;DHT22;7099;53.922;10.728;2023-02-28T20:56:29;1.70;57.40
14049;DHT22;7099;53.922;10.728;2023-02-28T21:00:35;1.60;57.50
14049;DHT22;7099;53.922;10.728;2023-02-28T21:04:41;1.50;57.70
14049;DHT22;7099;53.922;10.728;2023-02-28T21:08:48;1.50;58.00
14049;DHT22;7099;53.922;10.728;2023-02-28T21:12:54;1.40;57.90
14049;DHT22;7099;53.922;10.728;2023-02-28T21:17:02;1.40;58.00
14049;DHT22;7099;53.922;10.728;2023-02-28T21:21:18;1.30;58.10
14049;DHT22;7099;53.922;10.728;2023-02-28T21:25:27;1.20;58.40
14049;DHT22;7099;53.922;10.728;2023-02-28T21:29:33;1.20;58.40
14049;DHT22;7099;53.922;10.728;2023-02-28T21:33:39;1.10;58.40
14049;DHT22;7099;53.922;10.728;2023-02-28T21:37:45;1.10;58.60
14049;DHT22;7099;53.922;10.728;2023-02-28T21:41:51;1.00;58.80
14049;DHT22;7099;53.922;10.728;2023-02-28T21:46:02;1.00;58.90
14049;DHT22;7099;53.922;10.728;2023-02-28T21:50:09;0.90;59.00
14049;DHT22;7099;53.922;10.728;2023-02-28T21:54:15;0.90;59.00
14049;DHT22;7099;53.922;10.728;2023-02-28T21:58:20;0.80;59.10
14049;DHT22;7099;53.922;10.728;2023-02-28T22:02:26;0.80;59.20
14049;DHT22;7099;53.922;10.728;2023-02-28T22:06:37;0.70;59.30
14049;DHT22;7099;53.922;10.728;2023-02-28T22:10:43;0.70;59.30
14049;DHT22;7099;53.922;10.728;2023-02-28T22:14:49;0.60;59.50
14049;DHT22;7099;53.922;10.728;2023-02-28T22:18:55;0.50;59.80
14049;DHT22;7099;53.922;10.728;2023-02-28T22:23:00;0.50;59.80
14049;DHT22;7099;53.922;10.728;2023-02-28T22:27:06;0.40;59.90
14049;DHT22;7099;53.922;10.728;2023-02-28T22:31:19;0.40;60.00
14049;DHT22;7099;53.922;10.728;2023-02-28T22:35:24;0.40;60.40
14049;DHT22;7099;53.922;10.728;2023-02-28T22:39:30;0.30;60.20
14049;DHT22;7099;53.922;10.728;2023-02-28T22:43:36;0.30;60.40
14049;DHT22;7099;53.922;10.728;2023-02-28T22:47:42;0.20;60.40
14049;DHT22;7099;53.922;10.728;2023-02-28T22:51:48;0.20;60.50
14049;DHT22;7099;53.922;10.728;2023-02-28T22:55:54;0.20;60.70
14049;DHT22;7099;53.922;10.728;2023-02-28T23:00:00;0.10;60.90
14049;DHT22;7099;53.922;10.728;2023-02-28T23:04:06;0.00;61.10
14049;DHT22;7099;53.922;10.728;2023-02-28T23:08:11;0.00;61.20
14049;DHT22;7099;53.922;10.728;2023-02-28T23:12:17;0.00;61.60
14049;DHT22;7099;53.922;10.728;2023-02-28T23:16:35;0.00;62.20
14049;DHT22;7099;53.922;10.728;2023-02-28T23:20:48;0.00;61.80
14049;DHT22;7099;53.922;10.728;2023-02-28T23:24:53;-0.10;62.10
14049;DHT22;7099;53.922;10.728;2023-02-28T23:28:59;-0.10;62.10
14049;DHT22;7099;53.922;10.728;2023-02-28T23:33:05;-0.10;61.80
14049;DHT22;7099;53.922;10.728;2023-02-28T23:37:11;-0.20;61.60
14049;DHT22;7099;53.922;10.728;2023-02-28T23:41:18;-0.20;61.70
14049;DHT22;7099;53.922;10.728;2023-02-28T23:45:24;-0.30;61.80
14049;DHT22;7099;53.922;10.728;2023-02-28T23:49:29;-0.40;62.10
14049;DHT22;7099;53.922;10.728;2023-02-28T23:53:40;-0.40;62.20
14049;DHT22;7099;53.922;10.728;2023-02-28T23:57:47;-0.40;62.40
